Data for 01/24/2017

Time Sea-Level Adjusted Pressure Absolute Pressure Temperature Relative Humidity Dew Point   
(mb) (inHg) (mb) (inHg) (C) (F) (%) (C) (F)
00:05 1009 29.8 838 24.75 -6.6 20.2 88 -8.3 17.1
00:10 1009 29.8 838 24.75 -6.4 20.4 86 -8.3 17
00:15 1009 29.8 838 24.75 -6.4 20.5 86 -8.4 16.9
00:20 1009 29.8 838 24.75 -6.5 20.4 86 -8.5 16.7
00:25 1009 29.8 838 24.75 -6.6 20.1 86 -8.6 16.6
00:30 1009 29.8 838 24.75 -6.6 20.2 85 -8.6 16.5
00:35 1009 29.8 838 24.75 -6.5 20.2 85 -8.7 16.3
00:40 1009 29.8 838 24.75 -6.5 20.2 84 -8.8 16.2
00:45 1009 29.8 838 24.75 -6.6 20.2 84 -8.8 16.1
00:50 1009 29.8 838 24.75 -6.5 20.3 84 -8.9 16
00:55 1009 29.8 838 24.75 -6.6 20.2 83 -9 15.9
01:00 1009 29.8 838 24.75 -6.6 20.1 83 -9 15.8
01:05 1009 29.8 838 24.75 -6.6 20.1 83 -9 15.7
01:10 1009 29.8 838 24.75 -6.7 20 83 -9.1 15.6
01:15 1009 29.8 838 24.75 -6.7 19.9 83 -9.2 15.5
01:20 1009 29.8 838 24.75 -6.8 19.8 84 -9.1 15.6
01:25 1009 29.8 838 24.75 -6.7 19.9 84 -9 15.7
01:30 1009 29.8 838 24.75 -6.8 19.8 84 -9.1 15.7
01:35 1009 29.8 838 24.75 -6.8 19.7 84 -9.1 15.6
01:40 1009 29.8 838 24.75 -6.8 19.7 84 -9.1 15.6
01:45 1009 29.8 838 24.75 -6.9 19.7 84 -9.2 15.5
01:50 1009 29.8 838 24.75 -6.9 19.6 84 -9.2 15.5
01:55 1009 29.8 838 24.75 -7 19.5 84 -9.3 15.3
02:00 1009 29.8 838 24.75 -7 19.5 84 -9.2 15.4
02:05 1009 29.8 838 24.75 -6.9 19.6 84 -9.2 15.4
02:10 1009 29.8 838 24.75 -7 19.4 84 -9.3 15.3
02:15 1009 29.8 838 24.75 -7 19.4 84 -9.3 15.2
02:20 1009 29.8 838 24.75 -7 19.4 84 -9.3 15.2
02:25 1009 29.8 838 24.75 -7 19.4 83 -9.4 15.1
02:30 1009 29.8 838 24.75 -6.9 19.6 83 -9.3 15.3
02:35 1009 29.8 839 24.78 -6.9 19.6 83 -9.3 15.2
02:40 1009 29.8 839 24.78 -6.9 19.7 83 -9.2 15.4
02:45 1009 29.8 839 24.78 -6.8 19.8 83 -9.2 15.5
02:50 1010 29.83 839 24.78 -6.6 20 82 -9.2 15.5
02:55 1010 29.83 839 24.78 -6.7 20 82 -9.2 15.4
03:00 1010 29.83 839 24.78 -6.7 19.9 82 -9.3 15.3
03:05 1010 29.83 839 24.78 -6.9 19.6 83 -9.3 15.2
03:10 1010 29.83 839 24.78 -7 19.5 84 -9.3 15.3
03:15 1010 29.83 839 24.78 -7 19.3 84 -9.3 15.3
03:20 1010 29.83 839 24.78 -7.1 19.3 84 -9.3 15.2
03:25 1010 29.83 839 24.78 -7.1 19.3 85 -9.2 15.4
03:30 1010 29.83 839 24.78 -7 19.5 84 -9.2 15.5
03:35 1010 29.83 839 24.78 -6.9 19.7 84 -9.2 15.4
03:40 1010 29.83 839 24.78 -6.8 19.7 83 -9.3 15.3
03:45 1010 29.83 839 24.78 -6.9 19.6 83 -9.3 15.2
03:50 1010 29.83 839 24.78 -6.9 19.5 83 -9.4 15.1
03:55 1010 29.83 839 24.78 -7 19.5 83 -9.4 15.1
04:00 1010 29.83 839 24.78 -7.1 19.3 83 -9.5 14.9
04:05 1010 29.83 839 24.78 -7.1 19.2 83 -9.6 14.8
04:10 1010 29.83 839 24.78 -7.2 19.1 83 -9.6 14.7
04:15 1010 29.83 839 24.78 -7.2 19.1 83 -9.6 14.7
04:20 1010 29.83 839 24.78 -7.2 19.1 82 -9.7 14.5
04:25 1010 29.83 839 24.78 -7.2 19 82 -9.7 14.5
04:30 1010 29.83 839 24.78 -7.3 18.9 82 -9.8 14.3
04:35 1010 29.83 839 24.78 -7.3 18.9 83 -9.8 14.4
04:40 1010 29.83 839 24.78 -7.3 18.8 83 -9.7 14.5
04:45 1010 29.83 839 24.78 -7.3 18.8 83 -9.7 14.5
04:50 1010 29.83 839 24.78 -7.3 18.8 84 -9.6 14.6
04:55 1010 29.83 840 24.81 -7.3 18.8 84 -9.6 14.8
05:00 1010 29.83 840 24.81 -7.4 18.8 84 -9.5 14.8
05:05 1010 29.83 840 24.81 -7.4 18.6 85 -9.6 14.7
05:10 1010 29.83 840 24.81 -7.4 18.6 85 -9.6 14.7
05:15 1010 29.83 840 24.81 -7.5 18.5 85 -9.6 14.8
05:20 1011 29.85 840 24.81 -7.5 18.5 85 -9.6 14.7
05:25 1011 29.85 840 24.81 -7.7 18.2 86 -9.6 14.7
05:30 1011 29.85 840 24.81 -7.6 18.3 86 -9.6 14.7
05:35 1011 29.85 840 24.81 -7.7 18.2 85 -9.7 14.5
05:40 1011 29.85 840 24.81 -7.7 18.2 85 -9.8 14.4
05:45 1011 29.85 840 24.81 -7.7 18.1 85 -9.8 14.3
05:50 1011 29.85 840 24.81 -7.9 17.7 86 -9.9 14.1
05:55 1011 29.85 840 24.81 -8 17.5 86 -10 13.9
06:00 1011 29.85 840 24.81 -8 17.5 86 -10 13.9
06:05 1011 29.85 840 24.81 -8 17.5 85 -10.1 13.8
06:10 1011 29.85 840 24.81 -8.1 17.5 85 -10.2 13.7
06:15 1011 29.85 840 24.81 -8.1 17.4 85 -10.2 13.7
06:20 1011 29.85 840 24.81 -8.1 17.5 85 -10.2 13.7
06:25 1011 29.85 840 24.81 -8.1 17.4 85 -10.2 13.7
06:30 1011 29.85 840 24.81 -8.2 17.3 85 -10.2 13.7
06:35 1011 29.85 840 24.81 -8.2 17.2 86 -10.2 13.7
06:40 1011 29.85 840 24.81 -8.2 17.3 85 -10.2 13.6
06:45 1011 29.85 840 24.81 -8.2 17.3 85 -10.2 13.6
06:50 1011 29.85 840 24.81 -8.1 17.5 85 -10.1 13.8
06:55 1011 29.85 841 24.83 -8 17.5 85 -10.1 13.9
07:00 1011 29.85 841 24.83 -8.1 17.4 85 -10.2 13.7
07:05 1011 29.85 841 24.83 -8.1 17.4 85 -10.3 13.5
07:10 1012 29.88 841 24.83 -8.2 17.3 85 -10.3 13.4
07:15 1012 29.88 841 24.83 -8.3 17.1 85 -10.3 13.4
07:20 1012 29.88 841 24.83 -8.3 17.2 85 -10.3 13.4
07:25 1012 29.88 841 24.83 -8.3 17.1 85 -10.4 13.3
07:30 1012 29.88 841 24.83 -8.3 17.1 84 -10.5 13.2
07:35 1012 29.88 841 24.83 -8.3 17 85 -10.5 13.2
07:40 1012 29.88 841 24.83 -8.3 17 85 -10.4 13.2
07:45 1012 29.88 841 24.83 -8.3 17.1 84 -10.5 13.1
07:50 1012 29.88 841 24.83 -8.3 17 84 -10.5 13.1
07:55 1012 29.88 841 24.83 -8.4 16.9 85 -10.5 13
08:00 1012 29.88 841 24.83 -8.4 16.8 85 -10.6 13
08:05 1012 29.88 841 24.83 -8.5 16.8 84 -10.6 12.9
08:10 1012 29.88 841 24.83 -8.4 16.9 84 -10.6 12.8
08:15 1012 29.88 841 24.83 -8.5 16.7 84 -10.8 12.6
08:20 1012 29.88 841 24.83 -8.5 16.6 84 -10.8 12.5
08:25 1012 29.88 841 24.83 -8.5 16.8 83 -10.8 12.6
08:30 1012 29.88 841 24.83 -8.4 16.9 83 -10.8 12.6
08:35 1012 29.88 841 24.83 -8.4 16.9 84 -10.7 12.8
08:40 1012 29.88 841 24.83 -8.4 16.9 83 -10.8 12.5
08:45 1012 29.88 841 24.83 -8.3 17 82 -10.9 12.4
08:50 1012 29.88 841 24.83 -8.4 17 81 -11.1 12.1
08:55 1012 29.88 841 24.83 -8.5 16.8 81 -11.1 12
09:00 1012 29.88 841 24.83 -8.5 16.8 81 -11.1 12
09:05 1012 29.88 842 24.86 -8.5 16.8 81 -11.2 11.9
09:10 1012 29.88 842 24.86 -8.3 17 80 -11.1 12
09:15 1012 29.88 842 24.86 -8.1 17.4 80 -11 12.2
09:20 1012 29.88 842 24.86 -7.5 18.5 76 -11 12.3
09:25 1013 29.91 842 24.86 -7 19.4 73 -11.1 12.1
09:30 1013 29.91 842 24.86 -7.2 19.1 76 -10.7 12.7
09:35 1013 29.91 842 24.86 -7.3 19 76 -10.9 12.4
09:40 1013 29.91 842 24.86 -7.3 18.9 76 -10.9 12.4
09:45 1013 29.91 842 24.86 -7.2 19.1 75 -10.9 12.4
09:50 1013 29.91 842 24.86 -6.4 20.6 72 -10.7 12.8
09:55 1013 29.91 842 24.86 -5.9 21.4 70 -10.6 12.9
10:00 1013 29.91 842 24.86 -5.6 21.9 68 -10.6 12.9
10:05 1013 29.91 842 24.86 -5.1 22.8 65 -10.6 12.9
10:10 1013 29.91 842 24.86 -5.4 22.3 66 -10.9 12.5
10:15 1013 29.91 842 24.86 -5.9 21.4 67 -11 12.1
10:20 1013 29.91 842 24.86 -6.1 21.1 68 -11.1 12.1
10:25 1013 29.91 842 24.86 -6.2 20.9 70 -10.8 12.6
10:30 1013 29.91 842 24.86 -6.5 20.3 70 -11.1 12.1
10:35 1013 29.91 842 24.86 -7.1 19.3 69 -11.8 10.7
10:40 1013 29.91 842 24.86 -7.3 18.8 69 -12.1 10.2
10:45 1013 29.91 842 24.86 -7.2 19.1 68 -12.2 10.1
10:50 1013 29.91 843 24.89 -7 19.3 66 -12.3 9.9
10:55 1013 29.91 843 24.89 -6.4 20.4 63 -12.4 9.6
11:00 1013 29.91 843 24.89 -6.2 20.9 61 -12.4 9.6
11:05 1013 29.91 843 24.89 -6.4 20.5 63 -12.4 9.7
11:10 1013 29.91 843 24.89 -6 21.1 61 -12.3 9.8
11:15 1013 29.91 843 24.89 -5.8 21.5 61 -12.1 10.2
11:20 1013 29.91 843 24.89 -6 21.2 62 -12.1 10.2
11:25 1013 29.91 843 24.89 -6.1 20.9 63 -12.1 10.2
11:30 1013 29.91 843 24.89 -6.1 21.1 61 -12.3 9.8
11:35 1013 29.91 843 24.89 -5.7 21.7 60 -12.2 10
11:40 1013 29.91 843 24.89 -6.1 21 61 -12.4 9.7
11:45 1013 29.91 843 24.89 -6 21.2 60 -12.6 9.3
11:50 1013 29.91 843 24.89 -5.8 21.6 59 -12.5 9.5
11:55 1013 29.91 843 24.89 -5.8 21.6 57 -12.9 8.8
12:00 1013 29.91 842 24.86 -5.5 22.1 58 -12.5 9.5
12:05 1013 29.91 842 24.86 -5.1 22.8 56 -12.6 9.3
12:10 1013 29.91 842 24.86 -4.8 23.4 55 -12.4 9.7
12:15 1013 29.91 842 24.86 -5 23 57 -12.3 9.8
12:20 1013 29.91 842 24.86 -4.7 23.5 55 -12.4 9.6
12:25 1013 29.91 842 24.86 -4.5 23.9 55 -12.2 10
12:30 1013 29.91 842 24.86 -4.4 24.1 56 -12 10.4
12:35 1013 29.91 842 24.86 -4.2 24.5 53 -12.4 9.6
12:40 1013 29.91 842 24.86 -4.4 24 56 -11.9 10.6
12:45 1013 29.91 842 24.86 -5 22.9 58 -12 10.4
12:50 1013 29.91 842 24.86 -5.7 21.7 61 -12.1 10.1
12:55 1013 29.91 842 24.86 -5.7 21.7 60 -12.3 9.8
13:00 1013 29.91 842 24.86 -5.7 21.8 61 -12 10.4
13:05 1013 29.91 842 24.86 -5.6 21.8 61 -12 10.3
13:10 1013 29.91 842 24.86 -5.7 21.8 60 -12.2 10.1
13:15 1013 29.91 842 24.86 -5.8 21.5 61 -12.2 10.1
13:20 1013 29.91 842 24.86 -6.1 21 62 -12.3 9.8
13:25 1013 29.91 842 24.86 -5.6 21.9 59 -12.5 9.5
13:30 1013 29.91 842 24.86 -5.2 22.7 57 -12.4 9.8
13:35 1013 29.91 842 24.86 -4.8 23.4 56 -12.2 10
13:40 1013 29.91 842 24.86 -4.4 24.1 55 -12.2 10.1
13:45 1013 29.91 842 24.86 -3.5 25.7 52 -12 10.5
13:50 1013 29.91 842 24.86 -3.5 25.7 52 -12 10.5
13:55 1013 29.91 842 24.86 -4.5 23.8 57 -11.8 10.8
14:00 1013 29.91 842 24.86 -5.4 22.3 59 -12.2 10.1
14:05 1013 29.91 842 24.86 -5.7 21.7 62 -11.9 10.5
14:10 1013 29.91 842 24.86 -5.7 21.8 60 -12.2 10
14:15 1013 29.91 842 24.86 -6.1 21.1 63 -12.1 10.3
14:20 1013 29.91 842 24.86 -6.2 20.9 62 -12.2 10
14:25 1013 29.91 842 24.86 -5.7 21.7 59 -12.5 9.5
14:30 1013 29.91 842 24.86 -5.6 21.8 59 -12.3 9.8
14:35 1013 29.91 842 24.86 -5.5 22.1 58 -12.4 9.6
14:40 1013 29.91 843 24.89 -5.1 22.8 57 -12.3 9.8
14:45 1013 29.91 843 24.89 -4.9 23.1 57 -12.3 9.9
14:50 1013 29.91 843 24.89 -5.3 22.4 59 -12.1 10.2
14:55 1013 29.91 843 24.89 -5.3 22.5 59 -12 10.4
15:00 1014 29.94 843 24.89 -5.2 22.6 59 -12 10.4
15:05 1014 29.94 843 24.89 -5.3 22.4 60 -11.9 10.5
15:10 1014 29.94 843 24.89 -5.2 22.7 58 -12.2 10.1
15:15 1014 29.94 843 24.89 -5.6 22 61 -12 10.4
15:20 1014 29.94 843 24.89 -5.7 21.8 61 -12.1 10.2
15:25 1014 29.94 843 24.89 -5.6 21.9 60 -12.1 10.2
15:30 1014 29.94 843 24.89 -5.4 22.3 60 -12.1 10.3
15:35 1014 29.94 843 24.89 -5.3 22.5 60 -11.8 10.8
15:40 1014 29.94 843 24.89 -5.6 21.9 62 -11.8 10.8
15:45 1014 29.94 843 24.89 -5.6 21.8 61 -12 10.3
15:50 1014 29.94 843 24.89 -5.8 21.5 60 -12.5 9.5
15:55 1014 29.94 843 24.89 -6.1 21 62 -12.2 10.1
16:00 1014 29.94 843 24.89 -6.2 20.9 61 -12.5 9.6
16:05 1014 29.94 843 24.89 -6.5 20.3 61 -12.7 9.1
16:10 1014 29.94 843 24.89 -6.8 19.7 64 -12.6 9.2
16:15 1014 29.94 843 24.89 -6.6 20.1 61 -12.9 8.8
16:20 1014 29.94 843 24.89 -6.7 19.9 61 -13.1 8.5
16:25 1014 29.94 843 24.89 -6.2 20.8 58 -13.2 8.3
16:30 1014 29.94 843 24.89 -6.1 21.1 59 -12.9 8.8
16:35 1014 29.94 843 24.89 -5.7 21.7 58 -12.8 8.9
16:40 1014 29.94 843 24.89 -5.6 21.9 56 -13 8.6
16:45 1014 29.94 844 24.92 -6.3 20.6 60 -12.8 8.9
16:50 1014 29.94 844 24.92 -6.5 20.3 61 -12.9 8.8
16:55 1014 29.94 844 24.92 -6.6 20.1 59 -13.3 8.1
17:00 1015 29.97 844 24.92 -6.6 20 60 -13.1 8.3
17:05 1015 29.97 844 24.92 -6.4 20.6 59 -13.1 8.5
17:10 1015 29.97 844 24.92 -6 21.2 59 -12.8 8.9
17:15 1015 29.97 844 24.92 -6.1 21.1 58 -13.1 8.4
17:20 1015 29.97 844 24.92 -6.3 20.7 61 -12.6 9.3
17:25 1015 29.97 844 24.92 -6.2 20.8 60 -12.7 9.1
17:30 1015 29.97 844 24.92 -6.2 20.8 60 -12.8 8.9
17:35 1015 29.97 844 24.92 -6.4 20.4 61 -12.8 9
17:40 1015 29.97 844 24.92 -7 19.5 61 -13.3 8
17:45 1015 29.97 844 24.92 -7.1 19.3 62 -13.1 8.5
17:50 1015 29.97 844 24.92 -6.9 19.7 62 -13 8.6
17:55 1015 29.97 844 24.92 -7 19.4 63 -12.9 8.7
18:00 1015 29.97 844 24.92 -7 19.4 62 -13.2 8.3
18:05 1015 29.97 844 24.92 -7 19.4 63 -13 8.7
18:10 1015 29.97 844 24.92 -6.9 19.5 63 -12.8 9
18:15 1015 29.97 844 24.92 -6.7 19.9 62 -12.8 9
18:20 1015 29.97 844 24.92 -6.7 19.9 62 -12.8 8.9
18:25 1015 29.97 844 24.92 -6.7 19.9 62 -12.8 8.9
18:30 1015 29.97 844 24.92 -6.8 19.8 64 -12.6 9.4
18:35 1015 29.97 844 24.92 -6.9 19.6 65 -12.4 9.7
18:40 1015 29.97 844 24.92 -7.2 19.1 66 -12.5 9.5
18:45 1015 29.97 844 24.92 -7.3 18.8 67 -12.4 9.7
18:50 1015 29.97 844 24.92 -7.5 18.5 67 -12.6 9.3
18:55 1015 29.97 844 24.92 -7.6 18.4 66 -12.9 8.7
19:00 1015 29.97 844 24.92 -7.6 18.3 66 -12.9 8.8
19:05 1015 29.97 845 24.95 -7.6 18.3 65 -13.1 8.4
19:10 1015 29.97 845 24.95 -7.7 18.2 65 -13.1 8.4
19:15 1015 29.97 845 24.95 -7.7 18.2 67 -12.8 9
19:20 1015 29.97 845 24.95 -7.7 18.2 66 -13 8.6
19:25 1015 29.97 845 24.95 -7.8 18.1 67 -12.9 8.8
19:30 1015 29.97 845 24.95 -7.8 18.1 67 -12.9 8.7
19:35 1016 30 845 24.95 -7.6 18.2 66 -13 8.6
19:40 1016 30 845 24.95 -7.6 18.3 65 -13 8.6
19:45 1016 30 845 24.95 -7.7 18.1 66 -13 8.6
19:50 1016 30 845 24.95 -7.7 18.1 67 -12.9 8.9
19:55 1016 30 845 24.95 -7.7 18.1 67 -12.7 9.1
20:00 1016 30 845 24.95 -7.8 18 67 -12.9 8.8
20:05 1016 30 845 24.95 -7.8 17.9 67 -12.9 8.8
20:10 1016 30 845 24.95 -7.9 17.8 68 -12.7 9.1
20:15 1016 30 845 24.95 -7.9 17.7 68 -12.9 8.7
20:20 1016 30 845 24.95 -8 17.6 68 -12.9 8.8
20:25 1016 30 845 24.95 -8 17.5 68 -13 8.7
20:30 1016 30 845 24.95 -8 17.5 68 -13 8.6
20:35 1016 30 845 24.95 -8.1 17.3 68 -13 8.6
20:40 1016 30 845 24.95 -8.2 17.2 69 -13 8.6
20:45 1016 30 845 24.95 -8.3 17.1 69 -13 8.5
20:50 1016 30 845 24.95 -8.4 16.9 69 -13.1 8.5
20:55 1016 30 845 24.95 -8.5 16.7 70 -13.1 8.4
21:00 1016 30 845 24.95 -8.6 16.6 70 -13.1 8.4
21:05 1016 30 845 24.95 -8.7 16.3 71 -13 8.6
21:10 1016 30 845 24.95 -9 15.8 72 -13.1 8.3
21:15 1016 30 845 24.95 -9.2 15.5 73 -13.2 8.2
21:20 1016 30 845 24.95 -9.3 15.2 73 -13.4 8
21:25 1016 30 845 24.95 -9.6 14.8 74 -13.4 7.9
21:30 1016 30 845 24.95 -10 14.1 75 -13.5 7.6
21:35 1016 30 845 24.95 -9.9 14.3 75 -13.6 7.6
21:40 1016 30 845 24.95 -9.8 14.5 75 -13.4 7.9
21:45 1016 30 845 24.95 -9.7 14.5 75 -13.3 8.1
21:50 1016 30 845 24.95 -9.6 14.7 75 -13.2 8.2
21:55 1016 30 845 24.95 -9.5 14.8 75 -13.2 8.3
22:00 1016 30 846 24.98 -9.6 14.7 75 -13.2 8.2
22:05 1016 30 845 24.95 -9.8 14.5 76 -13.3 8.1
22:10 1016 30 845 24.95 -9.9 14.1 76 -13.4 7.9
22:15 1016 30 845 24.95 -10.1 13.8 76 -13.6 7.5
22:20 1016 30 845 24.95 -10.2 13.7 76 -13.7 7.4
22:25 1016 30 846 24.98 -10.1 13.7 75 -13.7 7.3
22:30 1016 30 846 24.98 -10.1 13.8 75 -13.7 7.4
22:35 1016 30 846 24.98 -10 13.9 75 -13.6 7.5
22:40 1016 30 846 24.98 -9.9 14.2 75 -13.6 7.5
22:45 1016 30 846 24.98 -9.8 14.5 74 -13.5 7.6
22:50 1016 30 846 24.98 -9.6 14.8 73 -13.5 7.7
22:55 1016 30 846 24.98 -9.5 15 73 -13.5 7.7
23:00 1016 30 846 24.98 -9.5 15 73 -13.4 7.9
23:05 1016 30 846 24.98 -9.5 15 74 -13.4 8
23:10 1017 30.03 846 24.98 -9.4 15 73 -13.4 7.9
23:15 1017 30.03 846 24.98 -9.5 15 73 -13.4 8
23:20 1017 30.03 846 24.98 -9.5 14.9 73 -13.4 7.8
23:25 1017 30.03 846 24.98 -9.7 14.6 74 -13.5 7.8
23:30 1017 30.03 846 24.98 -9.5 14.9 73 -13.5 7.6
23:35 1017 30.03 846 24.98 -9.6 14.7 74 -13.4 7.9
23:40 1017 30.03 846 24.98 -9.8 14.5 75 -13.5 7.8
23:45 1017 30.03 846 24.98 -9.6 14.7 74 -13.5 7.7
23:50 1017 30.03 846 24.98 -9.4 15.1 73 -13.3 8.1
23:55 1017 30.03 846 24.98 -9.2 15.4 73 -13.3 8.1
24:00 1017 30.03 846 24.98 -9.1 15.5 73 -13.2 8.2